createdAt,value
2017-07-19T00:14:09.110Z,6.23
2017-07-19T00:31:02.244Z,6.27
2017-07-19T00:39:28.263Z,5.70
2017-07-19T00:42:16.527Z,7.00
2017-07-19T01:04:25.307Z,6.70
2017-07-19T01:18:27.760Z,6.23
2017-07-19T01:26:45.506Z,5.47
2017-07-19T01:29:22.250Z,6.00
2017-07-19T01:37:48.592Z,5.67
2017-07-19T01:40:36.035Z,6.00
2017-07-19T01:51:40.418Z,7.13
2017-07-19T01:54:28.091Z,6.60
2017-07-19T02:02:45.987Z,6.20
2017-07-19T02:16:50.176Z,7.10
2017-07-19T02:30:54.153Z,5.93
2017-07-19T02:44:54.267Z,7.23
2017-07-19T02:53:18.733Z,7.20
2017-07-19T02:58:57.219Z,8.03
2017-07-19T03:01:40.631Z,8.80
2017-07-19T03:07:15.828Z,8.40
2017-07-19T03:21:20.595Z,7.63
2017-07-19T03:26:38.518Z,8.20
2017-07-19T03:29:22.512Z,7.87
2017-07-19T03:40:42.218Z,8.13
2017-07-19T03:43:28.561Z,8.30
2017-07-19T03:57:29.862Z,8.20
2017-07-19T04:02:52.422Z,7.37
2017-07-19T04:05:36.719Z,10.03
2017-07-19T04:11:11.635Z,8.33
2017-07-19T04:13:52.556Z,9.50
2017-07-19T04:16:27.248Z,8.20
2017-07-19T04:27:39.847Z,8.87
2017-07-19T04:30:13.432Z,9.00
2017-07-19T04:35:47.443Z,8.80
2017-07-19T04:47:01.234Z,9.47
2017-07-19T04:49:47.107Z,8.53
2017-07-19T04:52:30.605Z,9.30
2017-07-19T04:57:52.335Z,9.53
2017-07-19T05:03:19.751Z,10.07
2017-07-19T05:06:06.138Z,10.40
2017-07-19T05:11:39.410Z,11.00
2017-07-19T05:14:22.680Z,11.37
2017-07-19T05:20:00.351Z,10.00
2017-07-19T05:25:18.901Z,10.37
2017-07-19T05:27:57.882Z,9.43
2017-07-19T05:30:39.335Z,9.57
2017-07-19T05:35:59.824Z,9.17
2017-07-19T05:41:33.301Z,9.50
2017-07-19T05:44:18.730Z,8.73
2017-07-19T05:47:03.556Z,8.27
2017-07-19T05:49:36.870Z,8.87
2017-07-19T05:52:22.855Z,8.30
2017-07-19T05:55:05.496Z,8.47
2017-07-19T06:03:17.083Z,7.90
2017-07-19T06:11:23.003Z,7.77
2017-07-19T06:16:58.754Z,7.90
2017-07-19T06:22:28.263Z,6.60
2017-07-19T06:25:02.135Z,6.60
2017-07-19T06:33:32.310Z,6.03
2017-07-19T06:36:23.275Z,5.60
2017-07-19T06:44:46.743Z,4.87
2017-07-19T06:52:54.290Z,5.20
2017-07-19T06:58:31.911Z,4.10
2017-07-19T07:04:10.200Z,3.93
2017-07-19T07:06:52.430Z,2.73
2017-07-19T07:12:32.690Z,2.93
2017-07-19T07:15:17.275Z,2.80
2017-07-19T07:20:43.901Z,3.30
2017-07-19T07:23:32.775Z,3.07
2017-07-19T07:28:53.295Z,2.53
2017-07-19T07:31:40.207Z,2.83
2017-07-19T07:34:28.003Z,2.53
2017-07-19T07:42:38.558Z,2.63
2017-07-19T07:51:06.858Z,2.63
2017-07-19T07:56:48.343Z,3.10
2017-07-19T07:59:25.651Z,2.27
2017-07-19T08:04:46.679Z,2.40
2017-07-19T08:07:16.775Z,2.70
2017-07-19T08:15:42.270Z,2.80
2017-07-19T08:18:14.348Z,2.93
2017-07-19T08:20:44.681Z,2.50
2017-07-19T08:23:16.494Z,2.40
2017-07-19T08:25:51.553Z,2.60
2017-07-19T08:28:33.961Z,2.13
2017-07-19T08:31:07.011Z,2.33
2017-07-19T08:33:39.713Z,1.90
2017-07-19T08:36:23.287Z,1.77
2017-07-19T08:39:00.304Z,1.73
2017-07-19T08:41:35.493Z,2.27
2017-07-19T08:44:12.548Z,1.73
2017-07-19T08:49:22.205Z,2.30
2017-07-19T08:51:53.050Z,2.10
2017-07-19T08:54:28.117Z,2.00
2017-07-19T08:56:57.928Z,1.80
2017-07-19T09:02:10.518Z,2.03
2017-07-19T09:04:47.312Z,3.07
2017-07-19T09:07:21.636Z,3.13
2017-07-19T09:09:57.433Z,3.00
2017-07-19T09:15:20.327Z,2.70
2017-07-19T09:17:59.370Z,2.80
2017-07-19T09:20:35.388Z,3.53
2017-07-19T09:23:23.755Z,2.63
2017-07-19T09:25:54.516Z,2.83
2017-07-19T09:28:36.538Z,3.30
2017-07-19T09:31:17.891Z,2.77
2017-07-19T09:33:59.170Z,2.97
2017-07-19T09:36:31.983Z,3.27
2017-07-19T09:39:02.839Z,3.40
2017-07-19T09:41:33.652Z,3.30
2017-07-19T09:44:08.698Z,3.50
2017-07-19T09:46:47.035Z,3.40
2017-07-19T09:49:27.119Z,3.80
2017-07-19T09:51:58.394Z,3.57
2017-07-19T09:54:28.148Z,3.30
2017-07-19T09:56:58.179Z,3.20
2017-07-19T09:59:27.979Z,3.60
2017-07-19T10:01:58.002Z,3.60
2017-07-19T10:04:30.833Z,3.60
2017-07-19T10:07:00.891Z,3.63
2017-07-19T10:09:30.691Z,4.00
2017-07-19T10:12:02.717Z,4.00
2017-07-19T10:14:33.524Z,3.40
2017-07-19T10:17:03.294Z,3.53
2017-07-19T10:19:33.205Z,4.10
2017-07-19T10:22:06.094Z,4.00
2017-07-19T10:24:43.090Z,3.80
2017-07-19T10:27:14.968Z,4.47
2017-07-19T10:29:48.901Z,4.13
2017-07-19T10:32:18.751Z,3.67
2017-07-19T10:34:50.625Z,3.77
2017-07-19T10:37:21.398Z,4.10
2017-07-19T10:39:52.523Z,3.80
2017-07-19T10:42:28.199Z,4.40
2017-07-19T10:44:59.007Z,4.57
2017-07-19T10:47:30.827Z,4.57
2017-07-19T10:50:01.591Z,4.30
2017-07-19T10:52:32.756Z,5.00
2017-07-19T10:55:03.595Z,4.93
2017-07-19T10:57:38.098Z,4.47
2017-07-19T11:00:10.899Z,4.43
2017-07-19T11:02:40.704Z,4.73
2017-07-19T11:05:16.518Z,4.37
2017-07-19T11:07:46.578Z,4.13
2017-07-19T11:10:16.494Z,4.73
2017-07-19T11:12:47.327Z,4.70
2017-07-19T11:15:20.175Z,4.37
2017-07-19T11:17:49.947Z,4.43
2017-07-19T11:20:22.016Z,4.57
2017-07-19T11:22:51.876Z,4.83
2017-07-19T11:25:21.682Z,5.43
2017-07-19T11:27:54.515Z,4.73
2017-07-19T11:30:25.394Z,4.93
2017-07-19T11:32:56.203Z,4.77
2017-07-19T11:35:31.023Z,4.23
2017-07-19T11:38:00.834Z,5.03
2017-07-19T11:40:31.719Z,5.07
2017-07-19T11:43:06.763Z,4.80
2017-07-19T11:45:36.755Z,4.80
2017-07-19T11:48:07.538Z,5.30
2017-07-19T11:56:27.891Z,4.70
2017-07-19T11:59:08.160Z,4.37
2017-07-19T12:04:28.754Z,5.20
2017-07-19T12:06:58.525Z,23.30
2017-07-19T12:12:32.095Z,4.93
2017-07-19T12:15:12.960Z,5.13
2017-07-19T12:17:49.015Z,5.10
2017-07-19T12:20:35.129Z,5.20
2017-07-19T12:23:15.465Z,4.77
2017-07-19T12:28:26.039Z,5.23
2017-07-19T12:34:03.722Z,5.90
2017-07-19T12:36:46.904Z,5.47
2017-07-19T12:39:32.348Z,5.70
2017-07-19T12:42:02.103Z,5.57
2017-07-19T12:44:31.904Z,4.90
2017-07-19T12:47:05.682Z,5.40
2017-07-19T12:49:36.491Z,5.50
2017-07-19T12:54:48.908Z,5.43
2017-07-19T12:57:33.763Z,4.53
2017-07-19T13:00:15.063Z,5.07
2017-07-19T13:05:48.423Z,4.90
2017-07-19T13:08:22.308Z,5.10
2017-07-19T13:13:38.940Z,5.30
2017-07-19T13:19:03.456Z,5.60
2017-07-19T13:21:52.422Z,5.20
2017-07-19T13:24:38.988Z,6.10
2017-07-19T13:29:54.922Z,5.70
2017-07-19T13:32:31.886Z,5.80
2017-07-19T13:35:06.525Z,6.30
2017-07-19T13:37:46.775Z,5.50
2017-07-19T13:40:22.610Z,5.50
2017-07-19T13:48:45.553Z,5.23
2017-07-19T13:54:24.485Z,5.30
2017-07-19T13:57:09.341Z,6.03
2017-07-19T13:59:50.519Z,5.67
2017-07-19T14:02:29.962Z,6.00
2017-07-19T14:05:05.891Z,6.30
2017-07-19T14:07:35.779Z,5.63
2017-07-19T14:10:05.662Z,5.43
2017-07-19T14:12:37.179Z,5.10
2017-07-19T14:15:07.023Z,4.87
2017-07-19T14:20:28.413Z,5.50
2017-07-19T14:23:15.571Z,5.63
2017-07-19T14:31:34.219Z,5.27
2017-07-19T14:34:21.227Z,6.00
2017-07-19T14:39:42.583Z,5.43
2017-07-19T14:42:29.494Z,5.23
2017-07-19T14:45:15.131Z,6.27
2017-07-19T14:47:46.079Z,6.23
2017-07-19T14:50:29.706Z,6.40
2017-07-19T14:53:16.669Z,6.33
2017-07-19T14:55:49.472Z,5.27
2017-07-19T14:58:19.733Z,6.63
2017-07-19T15:03:43.999Z,5.27
2017-07-19T15:09:19.222Z,5.90
2017-07-19T15:11:49.071Z,6.30
2017-07-19T15:17:26.022Z,5.93
2017-07-19T15:31:21.574Z,4.90
2017-07-19T15:39:38.505Z,5.33
2017-07-19T15:50:59.287Z,5.93
2017-07-19T15:53:43.444Z,5.47
2017-07-19T16:10:44.670Z,6.17
2017-07-19T16:21:56.083Z,5.97
2017-07-19T16:35:50.354Z,5.40
2017-07-19T16:49:48.289Z,5.23
2017-07-19T16:55:08.909Z,7.10
2017-07-19T16:57:38.774Z,5.80
2017-07-19T17:02:54.848Z,6.43
2017-07-19T17:05:28.607Z,6.27
2017-07-19T17:08:01.656Z,5.57
2017-07-19T17:10:32.515Z,5.50
2017-07-19T17:13:04.451Z,6.70
2017-07-19T17:15:34.364Z,6.00
2017-07-19T17:18:05.012Z,5.17
2017-07-19T17:20:36.860Z,6.33
2017-07-19T17:23:08.890Z,6.50
2017-07-19T17:25:40.879Z,5.80
2017-07-19T17:28:17.758Z,6.77
2017-07-19T17:30:52.675Z,5.77
2017-07-19T17:33:25.438Z,6.93
2017-07-19T17:36:00.007Z,7.00
2017-07-19T17:38:31.776Z,10.00
2017-07-19T17:41:11.676Z,8.30
2017-07-19T17:43:41.697Z,7.10
2017-07-19T17:52:06.937Z,6.70
2017-07-19T17:54:55.908Z,6.17
2017-07-19T18:03:15.633Z,5.60
2017-07-19T18:06:06.923Z,6.37
2017-07-19T18:14:24.387Z,7.10
2017-07-19T18:28:18.631Z,7.73
2017-07-19T18:36:36.485Z,7.00
2017-07-19T18:41:59.554Z,7.40
2017-07-19T18:44:38.660Z,7.87
2017-07-19T18:50:18.834Z,7.00
2017-07-19T19:01:35.197Z,6.83
2017-07-19T19:04:23.124Z,7.70
2017-07-19T19:09:45.284Z,7.73
2017-07-19T19:12:16.066Z,8.13
2017-07-19T19:14:47.768Z,7.60
2017-07-19T19:17:24.707Z,7.93
2017-07-19T19:19:55.482Z,7.77
2017-07-19T19:22:39.285Z,7.80
2017-07-19T19:25:15.083Z,8.53
2017-07-19T19:27:51.321Z,8.40
2017-07-19T19:30:34.958Z,7.87
2017-07-19T19:44:33.326Z,8.20
2017-07-19T19:47:20.314Z,8.40
2017-07-19T19:52:52.519Z,9.10
2017-07-19T19:55:30.475Z,8.87
2017-07-19T19:58:04.146Z,8.93
2017-07-19T20:00:42.791Z,8.93
2017-07-19T20:03:26.929Z,8.67
2017-07-19T20:06:08.371Z,8.07
2017-07-19T20:08:55.038Z,8.33
2017-07-19T20:11:30.076Z,8.60
2017-07-19T20:17:02.336Z,7.63
2017-07-19T20:22:43.158Z,7.03
2017-07-19T20:28:07.749Z,7.10
2017-07-19T20:30:37.845Z,6.90
2017-07-19T20:33:10.952Z,4.93
2017-07-19T20:35:53.165Z,4.43
2017-07-19T20:41:30.178Z,6.43
2017-07-19T20:44:00.070Z,8.03
2017-07-19T20:46:37.082Z,7.20
2017-07-19T20:49:10.895Z,4.77
2017-07-19T20:51:42.696Z,6.30
2017-07-19T20:54:13.523Z,7.47
2017-07-19T20:56:43.378Z,7.00
2017-07-19T20:59:13.471Z,7.50
2017-07-19T21:01:43.320Z,4.77
2017-07-19T21:04:14.226Z,2.80
2017-07-19T21:06:44.168Z,5.27
2017-07-19T21:09:15.841Z,4.10
2017-07-19T21:11:45.624Z,4.30
2017-07-19T21:14:16.548Z,3.63
2017-07-19T21:16:52.423Z,3.53
2017-07-19T21:19:26.068Z,4.60
2017-07-19T21:21:55.871Z,4.63
2017-07-19T21:24:26.004Z,5.37
2017-07-19T21:26:58.155Z,3.63
2017-07-19T21:29:27.936Z,4.30
2017-07-19T21:31:58.996Z,5.37
2017-07-19T21:34:31.962Z,4.37
2017-07-19T21:37:03.044Z,3.73
2017-07-19T21:39:32.910Z,4.20
2017-07-19T21:42:05.822Z,4.70
2017-07-19T21:44:37.683Z,5.50
2017-07-19T21:47:08.503Z,4.13
2017-07-19T21:49:38.295Z,4.47
2017-07-19T21:52:09.895Z,5.37
2017-07-19T21:54:41.782Z,3.47
2017-07-19T21:57:13.670Z,5.17
2017-07-19T21:59:44.307Z,5.20
2017-07-19T22:02:16.980Z,5.37
2017-07-19T22:04:50.687Z,5.30
2017-07-19T22:07:21.255Z,5.00
2017-07-19T22:09:53.192Z,5.13
2017-07-19T22:12:25.003Z,8.43
2017-07-19T22:14:54.818Z,5.90
2017-07-19T22:17:29.273Z,5.93
2017-07-19T22:19:59.238Z,5.47
2017-07-19T22:22:30.055Z,4.63
2017-07-19T22:25:00.856Z,4.70
2017-07-19T22:27:30.758Z,6.37
2017-07-19T22:30:03.315Z,5.70
2017-07-19T22:32:38.567Z,6.20
2017-07-19T22:35:18.738Z,7.47
2017-07-19T22:38:10.426Z,7.67
2017-07-19T23:09:25.772Z,7.63
2017-07-19T23:49:06.664Z,9.10
